sensor_id;sensor_type;location;lat;lon;timestamp;pressure;altitude;pressure_sealevel;temperature;humidity
25658;BME280;13517;59.320;18.042;2023-05-21T00:02:14;102427.47;;;8.28;100.00
25658;BME280;13517;59.320;18.042;2023-05-21T00:04:45;102424.03;;;8.23;100.00
25658;BME280;13517;59.320;18.042;2023-05-21T00:07:11;102438.88;;;8.38;100.00
25658;BME280;13517;59.320;18.042;2023-05-21T00:09:37;102446.00;;;8.39;100.00
25658;BME280;13517;59.320;18.042;2023-05-21T00:12:07;102446.00;;;8.39;100.00
25658;BME280;13517;59.320;18.042;2023-05-21T00:14:33;102432.78;;;8.31;100.00
25658;BME280;13517;59.320;18.042;2023-05-21T00:16:59;102400.03;;;8.14;100.00
25658;BME280;13517;59.320;18.042;2023-05-21T00:19:24;102386.00;;;8.02;100.00
25658;BME280;13517;59.320;18.042;2023-05-21T00:21:51;102432.84;;;8.28;100.00
25658;BME280;13517;59.320;18.042;2023-05-21T00:24:16;102419.75;;;8.16;100.00
25658;BME280;13517;59.320;18.042;2023-05-21T00:26:42;102428.63;;;8.20;100.00
25658;BME280;13517;59.320;18.042;2023-05-21T00:29:07;102438.44;;;8.22;100.00
25658;BME280;13517;59.320;18.042;2023-05-21T00:31:32;102432.94;;;8.25;100.00
25658;BME280;13517;59.320;18.042;2023-05-21T00:33:58;102448.19;;;8.25;100.00
25658;BME280;13517;59.320;18.042;2023-05-21T00:36:23;102454.47;;;8.25;100.00
25658;BME280;13517;59.320;18.042;2023-05-21T00:38:50;102436.69;;;8.20;100.00
25658;BME280;13517;59.320;18.042;2023-05-21T00:41:16;102445.56;;;8.23;100.00
25658;BME280;13517;59.320;18.042;2023-05-21T00:43:42;102411.16;;;8.01;100.00
25658;BME280;13517;59.320;18.042;2023-05-21T00:46:17;102428.94;;;8.07;100.00
25658;BME280;13517;59.320;18.042;2023-05-21T00:48:44;102429.66;;;8.14;100.00
25658;BME280;13517;59.320;18.042;2023-05-21T00:51:11;102444.59;;;8.26;100.00
25658;BME280;13517;59.320;18.042;2023-05-21T00:53:38;102438.28;;;8.27;100.00
25658;BME280;13517;59.320;18.042;2023-05-21T00:56:04;102438.38;;;8.24;100.00
25658;BME280;13517;59.320;18.042;2023-05-21T00:58:30;102435.63;;;8.25;100.00
25658;BME280;13517;59.320;18.042;2023-05-21T01:00:57;102396.72;;;8.04;100.00
25658;BME280;13517;59.320;18.042;2023-05-21T01:03:28;102418.88;;;8.14;100.00
25658;BME280;13517;59.320;18.042;2023-05-21T01:05:54;102419.84;;;8.11;100.00
25658;BME280;13517;59.320;18.042;2023-05-21T01:08:24;102409.31;;;8.03;100.00
25658;BME280;13517;59.320;18.042;2023-05-21T01:10:50;102445.56;;;8.23;100.00
25658;BME280;13517;59.320;18.042;2023-05-21T01:13:16;102446.50;;;8.22;100.00
25658;BME280;13517;59.320;18.042;2023-05-21T01:15:43;102433.25;;;8.14;100.00
25658;BME280;13517;59.320;18.042;2023-05-21T01:18:09;102423.59;;;8.06;100.00
25658;BME280;13517;59.320;18.042;2023-05-21T01:20:35;102449.44;;;8.13;100.00
25658;BME280;13517;59.320;18.042;2023-05-21T01:23:02;102416.53;;;8.01;100.00
25658;BME280;13517;59.320;18.042;2023-05-21T01:25:27;102422.66;;;8.07;100.00
25658;BME280;13517;59.320;18.042;2023-05-21T01:27:53;102408.69;;;7.92;100.00
25658;BME280;13517;59.320;18.042;2023-05-21T01:30:20;102431.66;;;8.06;100.00
25658;BME280;13517;59.320;18.042;2023-05-21T01:32:53;102440.56;;;8.08;100.00
25658;BME280;13517;59.320;18.042;2023-05-21T01:35:43;102436.41;;;7.96;100.00
25658;BME280;13517;59.320;18.042;2023-05-21T01:40:52;102435.38;;;8.01;100.00
25658;BME280;13517;59.320;18.042;2023-05-21T01:43:19;102449.69;;;8.03;100.00
25658;BME280;13517;59.320;18.042;2023-05-21T01:45:46;102452.41;;;8.02;100.00
25658;BME280;13517;59.320;18.042;2023-05-21T01:48:12;102429.47;;;7.87;100.00
25658;BME280;13517;59.320;18.042;2023-05-21T01:50:39;102453.22;;;8.04;100.00
25658;BME280;13517;59.320;18.042;2023-05-21T01:53:06;102432.09;;;7.90;100.00
25658;BME280;13517;59.320;18.042;2023-05-21T01:55:31;102449.84;;;7.97;100.00
25658;BME280;13517;59.320;18.042;2023-05-21T01:57:58;102454.25;;;8.00;100.00
25658;BME280;13517;59.320;18.042;2023-05-21T02:00:25;102457.81;;;8.00;100.00
25658;BME280;13517;59.320;18.042;2023-05-21T02:02:55;102423.31;;;7.82;100.00
25658;BME280;13517;59.320;18.042;2023-05-21T02:05:20;102449.75;;;8.00;100.00
25658;BME280;13517;59.320;18.042;2023-05-21T02:07:46;102461.22;;;8.09;100.00
25658;BME280;13517;59.320;18.042;2023-05-21T02:10:11;102447.69;;;8.10;100.00
25658;BME280;13517;59.320;18.042;2023-05-21T02:12:37;102444.13;;;8.10;100.00
25658;BME280;13517;59.320;18.042;2023-05-21T02:15:03;102449.34;;;8.16;100.00
25658;BME280;13517;59.320;18.042;2023-05-21T02:17:28;102385.63;;;7.83;100.00
25658;BME280;13517;59.320;18.042;2023-05-21T02:19:58;102408.28;;;8.08;100.00
25658;BME280;13517;59.320;18.042;2023-05-21T02:22:32;102434.53;;;8.32;100.00
25658;BME280;13517;59.320;18.042;2023-05-21T02:24:58;102400.72;;;8.22;100.00
25658;BME280;13517;59.320;18.042;2023-05-21T02:27:24;102446.53;;;8.54;100.00
25658;BME280;13517;59.320;18.042;2023-05-21T02:29:50;102449.03;;;8.62;100.00
25658;BME280;13517;59.320;18.042;2023-05-21T02:32:15;102447.84;;;8.72;100.00
25658;BME280;13517;59.320;18.042;2023-05-21T02:34:41;102434.31;;;8.74;100.00
25658;BME280;13517;59.320;18.042;2023-05-21T02:37:08;102425.06;;;8.82;100.00
25658;BME280;13517;59.320;18.042;2023-05-21T02:39:33;102420.44;;;8.88;100.00
25658;BME280;13517;59.320;18.042;2023-05-21T02:41:59;102425.63;;;8.94;100.00
25658;BME280;13517;59.320;18.042;2023-05-21T02:44:24;102416.63;;;8.95;100.00
25658;BME280;13517;59.320;18.042;2023-05-21T02:46:50;102406.81;;;8.92;100.00
25658;BME280;13517;59.320;18.042;2023-05-21T02:49:15;102430.56;;;9.09;100.00
25658;BME280;13517;59.320;18.042;2023-05-21T02:51:40;102420.06;;;9.00;100.00
25658;BME280;13517;59.320;18.042;2023-05-21T02:54:06;102400.63;;;8.89;100.00
25658;BME280;13517;59.320;18.042;2023-05-21T02:56:31;102435.00;;;9.10;100.00
25658;BME280;13517;59.320;18.042;2023-05-21T02:58:57;102401.91;;;9.05;100.00
25658;BME280;13517;59.320;18.042;2023-05-21T03:01:22;102410.78;;;9.37;100.00
25658;BME280;13517;59.320;18.042;2023-05-21T03:03:47;102419.31;;;9.79;100.00
25658;BME280;13517;59.320;18.042;2023-05-21T03:06:13;102431.56;;;9.89;100.00
25658;BME280;13517;59.320;18.042;2023-05-21T03:08:40;102396.50;;;10.13;100.00
25658;BME280;13517;59.320;18.042;2023-05-21T03:11:05;102405.91;;;10.78;100.00
25658;BME280;13517;59.320;18.042;2023-05-21T03:13:31;102421.09;;;11.71;100.00
25658;BME280;13517;59.320;18.042;2023-05-21T03:15:56;102400.28;;;11.94;100.00
25658;BME280;13517;59.320;18.042;2023-05-21T03:18:22;102430.06;;;12.56;99.27
25658;BME280;13517;59.320;18.042;2023-05-21T03:20:48;102430.44;;;12.67;98.37
25658;BME280;13517;59.320;18.042;2023-05-21T03:23:13;102429.25;;;12.54;98.79
25658;BME280;13517;59.320;18.042;2023-05-21T03:25:40;102392.69;;;12.02;100.00
25658;BME280;13517;59.320;18.042;2023-05-21T03:28:05;102424.38;;;12.00;100.00
25658;BME280;13517;59.320;18.042;2023-05-21T03:30:31;102432.72;;;11.95;100.00
25658;BME280;13517;59.320;18.042;2023-05-21T03:32:57;102425.09;;;11.83;100.00
25658;BME280;13517;59.320;18.042;2023-05-21T03:35:24;102438.59;;;11.84;100.00
25658;BME280;13517;59.320;18.042;2023-05-21T03:37:49;102408.22;;;11.76;100.00
25658;BME280;13517;59.320;18.042;2023-05-21T03:40:14;102431.97;;;11.92;100.00
25658;BME280;13517;59.320;18.042;2023-05-21T03:42:40;102431.13;;;11.90;100.00
25658;BME280;13517;59.320;18.042;2023-05-21T03:45:06;102421.44;;;11.84;100.00
25658;BME280;13517;59.320;18.042;2023-05-21T03:47:32;102404.13;;;11.67;100.00
25658;BME280;13517;59.320;18.042;2023-05-21T03:49:58;102383.97;;;11.52;100.00
25658;BME280;13517;59.320;18.042;2023-05-21T03:52:23;102388.44;;;11.53;100.00
25658;BME280;13517;59.320;18.042;2023-05-21T03:54:48;102373.59;;;11.41;100.00
25658;BME280;13517;59.320;18.042;2023-05-21T03:57:14;102417.69;;;11.66;100.00
25658;BME280;13517;59.320;18.042;2023-05-21T03:59:39;102415.75;;;11.69;100.00
25658;BME280;13517;59.320;18.042;2023-05-21T04:02:04;102389.38;;;11.52;100.00
25658;BME280;13517;59.320;18.042;2023-05-21T04:04:30;102394.69;;;11.55;100.00
25658;BME280;13517;59.320;18.042;2023-05-21T04:06:57;102410.34;;;11.69;100.00
25658;BME280;13517;59.320;18.042;2023-05-21T04:09:23;102410.38;;;11.68;100.00
25658;BME280;13517;59.320;18.042;2023-05-21T04:11:49;102382.91;;;11.56;100.00
25658;BME280;13517;59.320;18.042;2023-05-21T04:14:14;102400.41;;;11.70;100.00
25658;BME280;13517;59.320;18.042;2023-05-21T04:16:40;102401.19;;;11.72;100.00
25658;BME280;13517;59.320;18.042;2023-05-21T04:19:08;102405.94;;;11.88;100.00
25658;BME280;13517;59.320;18.042;2023-05-21T04:21:33;102380.78;;;11.85;100.00
25658;BME280;13517;59.320;18.042;2023-05-21T04:23:58;102383.41;;;11.87;100.00
25658;BME280;13517;59.320;18.042;2023-05-21T04:26:24;102389.88;;;12.05;100.00
25658;BME280;13517;59.320;18.042;2023-05-21T04:28:50;102403.00;;;12.15;100.00
25658;BME280;13517;59.320;18.042;2023-05-21T04:31:18;102379.97;;;12.04;100.00
25658;BME280;13517;59.320;18.042;2023-05-21T04:33:43;102396.38;;;12.22;100.00
25658;BME280;13517;59.320;18.042;2023-05-21T04:36:10;102401.16;;;12.36;100.00
25658;BME280;13517;59.320;18.042;2023-05-21T04:38:36;102407.03;;;12.46;100.00
25658;BME280;13517;59.320;18.042;2023-05-21T04:41:02;102406.75;;;12.52;100.00
25658;BME280;13517;59.320;18.042;2023-05-21T04:43:28;102400.53;;;12.50;99.59
25658;BME280;13517;59.320;18.042;2023-05-21T04:45:54;102399.34;;;12.56;99.08
25658;BME280;13517;59.320;18.042;2023-05-21T04:48:20;102409.13;;;12.60;98.47
25658;BME280;13517;59.320;18.042;2023-05-21T04:50:48;102407.16;;;12.63;98.42
25658;BME280;13517;59.320;18.042;2023-05-21T04:53:14;102400.81;;;12.63;97.89
25658;BME280;13517;59.320;18.042;2023-05-21T04:55:39;102388.84;;;12.69;97.46
25658;BME280;13517;59.320;18.042;2023-05-21T04:58:06;102369.97;;;12.65;97.19
25658;BME280;13517;59.320;18.042;2023-05-21T05:00:34;102396.97;;;12.88;97.01
25658;BME280;13517;59.320;18.042;2023-05-21T05:03:01;102398.66;;;12.90;96.54
25658;BME280;13517;59.320;18.042;2023-05-21T05:05:27;102366.75;;;12.76;96.08
25658;BME280;13517;59.320;18.042;2023-05-21T05:07:52;102396.69;;;12.94;95.71
25658;BME280;13517;59.320;18.042;2023-05-21T05:10:18;102372.91;;;12.80;95.90
25658;BME280;13517;59.320;18.042;2023-05-21T05:12:43;102409.06;;;13.00;95.73
25658;BME280;13517;59.320;18.042;2023-05-21T05:15:09;102387.47;;;12.97;95.21
25658;BME280;13517;59.320;18.042;2023-05-21T05:17:34;102389.19;;;12.99;95.45
25658;BME280;13517;59.320;18.042;2023-05-21T05:20:00;102370.72;;;12.88;96.08
25658;BME280;13517;59.320;18.042;2023-05-21T05:22:25;102390.34;;;12.93;95.92
25658;BME280;13517;59.320;18.042;2023-05-21T05:24:51;102358.13;;;12.68;95.73
25658;BME280;13517;59.320;18.042;2023-05-21T05:27:16;102364.72;;;12.62;95.86
25658;BME280;13517;59.320;18.042;2023-05-21T05:29:43;102384.63;;;12.61;96.21
25658;BME280;13517;59.320;18.042;2023-05-21T05:32:08;102365.84;;;12.37;96.74
25658;BME280;13517;59.320;18.042;2023-05-21T05:34:34;102359.09;;;12.27;97.43
25658;BME280;13517;59.320;18.042;2023-05-21T05:36:59;102381.84;;;12.44;97.26
25658;BME280;13517;59.320;18.042;2023-05-21T05:39:27;102355.44;;;12.28;97.87
25658;BME280;13517;59.320;18.042;2023-05-21T05:41:52;102381.31;;;12.35;98.11
25658;BME280;13517;59.320;18.042;2023-05-21T05:44:18;102385.63;;;12.39;98.08
25658;BME280;13517;59.320;18.042;2023-05-21T05:46:43;102372.66;;;12.27;98.55
25658;BME280;13517;59.320;18.042;2023-05-21T05:49:09;102368.94;;;12.30;98.85
25658;BME280;13517;59.320;18.042;2023-05-21T05:51:34;102345.97;;;12.18;99.37
25658;BME280;13517;59.320;18.042;2023-05-21T05:54:00;102386.53;;;12.40;99.33
25658;BME280;13517;59.320;18.042;2023-05-21T05:56:25;102373.03;;;12.38;99.34
25658;BME280;13517;59.320;18.042;2023-05-21T05:58:51;102380.19;;;12.39;98.66
25658;BME280;13517;59.320;18.042;2023-05-21T06:01:17;102350.16;;;12.25;98.72
25658;BME280;13517;59.320;18.042;2023-05-21T06:03:43;102374.50;;;12.46;98.27
25658;BME280;13517;59.320;18.042;2023-05-21T06:06:08;102377.00;;;12.50;98.21
25658;BME280;13517;59.320;18.042;2023-05-21T06:08:33;102369.22;;;12.43;97.99
25658;BME280;13517;59.320;18.042;2023-05-21T06:11:00;102330.63;;;12.37;97.78
25658;BME280;13517;59.320;18.042;2023-05-21T06:13:25;102366.09;;;12.71;96.71
25658;BME280;13517;59.320;18.042;2023-05-21T06:15:51;102353.25;;;12.75;95.58
25658;BME280;13517;59.320;18.042;2023-05-21T06:18:17;102340.66;;;12.74;94.99
25658;BME280;13517;59.320;18.042;2023-05-21T06:20:42;102369.16;;;13.02;94.83
25658;BME280;13517;59.320;18.042;2023-05-21T06:23:08;102374.22;;;13.10;94.40
25658;BME280;13517;59.320;18.042;2023-05-21T06:25:33;102348.97;;;13.07;93.75
25658;BME280;13517;59.320;18.042;2023-05-21T06:27:59;102334.84;;;13.01;94.06
25658;BME280;13517;59.320;18.042;2023-05-21T06:30:25;102373.47;;;13.25;93.04
25658;BME280;13517;59.320;18.042;2023-05-21T06:32:50;102369.06;;;13.23;93.42
25658;BME280;13517;59.320;18.042;2023-05-21T06:35:15;102353.69;;;13.04;94.50
25658;BME280;13517;59.320;18.042;2023-05-21T06:37:41;102358.66;;;13.13;95.11
25658;BME280;13517;59.320;18.042;2023-05-21T06:40:07;102352.81;;;13.03;95.28
25658;BME280;13517;59.320;18.042;2023-05-21T06:42:33;102341.00;;;13.04;94.57
25658;BME280;13517;59.320;18.042;2023-05-21T06:44:58;102361.09;;;13.19;93.95
25658;BME280;13517;59.320;18.042;2023-05-21T06:47:24;102366.28;;;13.24;93.68
25658;BME280;13517;59.320;18.042;2023-05-21T06:49:49;102357.25;;;13.24;92.98
25658;BME280;13517;59.320;18.042;2023-05-21T06:52:15;102367.00;;;13.28;92.60
25658;BME280;13517;59.320;18.042;2023-05-21T06:54:40;102341.91;;;13.23;92.21
25658;BME280;13517;59.320;18.042;2023-05-21T06:57:06;102362.06;;;13.36;91.29
25658;BME280;13517;59.320;18.042;2023-05-21T06:59:32;102366.22;;;13.43;91.11
25658;BME280;13517;59.320;18.042;2023-05-21T07:01:58;102356.13;;;13.47;90.33
25658;BME280;13517;59.320;18.042;2023-05-21T07:04:23;102330.59;;;13.32;89.36
25658;BME280;13517;59.320;18.042;2023-05-21T07:06:48;102363.72;;;13.58;88.69
25658;BME280;13517;59.320;18.042;2023-05-21T07:09:14;102337.03;;;13.48;87.80
25658;BME280;13517;59.320;18.042;2023-05-21T07:11:39;102367.00;;;13.82;87.16
25658;BME280;13517;59.320;18.042;2023-05-21T07:14:05;102357.31;;;13.94;85.62
25658;BME280;13517;59.320;18.042;2023-05-21T07:16:30;102369.41;;;14.22;84.08
25658;BME280;13517;59.320;18.042;2023-05-21T07:18:56;102360.41;;;14.38;82.82
25658;BME280;13517;59.320;18.042;2023-05-21T07:21:21;102372.13;;;14.56;82.25
25658;BME280;13517;59.320;18.042;2023-05-21T07:23:47;102344.22;;;14.52;81.09
25658;BME280;13517;59.320;18.042;2023-05-21T07:26:12;102362.72;;;14.79;80.33
25658;BME280;13517;59.320;18.042;2023-05-21T07:28:37;102363.34;;;15.01;78.28
25658;BME280;13517;59.320;18.042;2023-05-21T07:31:03;102336.69;;;15.22;76.63
25658;BME280;13517;59.320;18.042;2023-05-21T07:33:28;102357.81;;;15.79;74.50
25658;BME280;13517;59.320;18.042;2023-05-21T07:35:53;102354.28;;;16.08;71.84
25658;BME280;13517;59.320;18.042;2023-05-21T07:38:19;102344.75;;;16.30;69.47
25658;BME280;13517;59.320;18.042;2023-05-21T07:40:44;102343.28;;;16.53;68.00
25658;BME280;13517;59.320;18.042;2023-05-21T07:43:11;102344.94;;;16.56;67.42
25658;BME280;13517;59.320;18.042;2023-05-21T07:45:36;102345.63;;;16.59;67.61
25658;BME280;13517;59.320;18.042;2023-05-21T07:48:02;102347.66;;;16.56;67.16
25658;BME280;13517;59.320;18.042;2023-05-21T07:50:27;102352.13;;;16.71;66.41
25658;BME280;13517;59.320;18.042;2023-05-21T07:52:52;102342.41;;;16.67;65.19
25658;BME280;13517;59.320;18.042;2023-05-21T07:55:18;102352.03;;;16.73;63.67
25658;BME280;13517;59.320;18.042;2023-05-21T07:57:43;102334.66;;;16.74;62.84
25658;BME280;13517;59.320;18.042;2023-05-21T08:00:10;102338.72;;;16.96;61.32
25658;BME280;13517;59.320;18.042;2023-05-21T08:02:38;102348.34;;;17.16;60.70
25658;BME280;13517;59.320;18.042;2023-05-21T08:05:04;102347.31;;;17.32;60.11
25658;BME280;13517;59.320;18.042;2023-05-21T08:07:30;102351.50;;;17.50;59.18
25658;BME280;13517;59.320;18.042;2023-05-21T08:09:57;102327.69;;;17.52;57.58
25658;BME280;13517;59.320;18.042;2023-05-21T08:12:22;102348.72;;;17.78;56.61
25658;BME280;13517;59.320;18.042;2023-05-21T08:14:48;102355.09;;;17.91;55.53
25658;BME280;13517;59.320;18.042;2023-05-21T08:17:14;102330.81;;;17.87;55.26
25658;BME280;13517;59.320;18.042;2023-05-21T08:19:40;102355.25;;;18.16;54.47
25658;BME280;13517;59.320;18.042;2023-05-21T08:22:06;102349.53;;;18.32;53.86
25658;BME280;13517;59.320;18.042;2023-05-21T08:24:32;102357.50;;;18.48;53.58
25658;BME280;13517;59.320;18.042;2023-05-21T08:26:57;102348.28;;;18.49;53.34
25658;BME280;13517;59.320;18.042;2023-05-21T08:29:22;102345.50;;;18.37;52.62
25658;BME280;13517;59.320;18.042;2023-05-21T08:31:48;102340.25;;;18.21;53.02
25658;BME280;13517;59.320;18.042;2023-05-21T08:34:13;102332.81;;;18.10;53.07
25658;BME280;13517;59.320;18.042;2023-05-21T08:36:38;102348.13;;;18.13;52.38
25658;BME280;13517;59.320;18.042;2023-05-21T08:39:07;102350.97;;;18.12;52.48
25658;BME280;13517;59.320;18.042;2023-05-21T08:41:34;102353.16;;;18.06;52.52
25658;BME280;13517;59.320;18.042;2023-05-21T08:44:00;102331.66;;;17.87;52.27
25658;BME280;13517;59.320;18.042;2023-05-21T08:46:31;102353.56;;;18.00;52.38
25658;BME280;13517;59.320;18.042;2023-05-21T08:49:01;102360.56;;;18.04;52.48
25658;BME280;13517;59.320;18.042;2023-05-21T08:51:27;102351.19;;;18.08;52.19
25658;BME280;13517;59.320;18.042;2023-05-21T08:53:54;102352.94;;;18.09;51.40
25658;BME280;13517;59.320;18.042;2023-05-21T08:56:20;102350.41;;;18.06;51.51
25658;BME280;13517;59.320;18.042;2023-05-21T08:58:46;102316.16;;;17.88;51.61
25658;BME280;13517;59.320;18.042;2023-05-21T09:01:11;102357.75;;;18.06;51.68
25658;BME280;13517;59.320;18.042;2023-05-21T09:03:38;102352.28;;;18.06;51.83
25658;BME280;13517;59.320;18.042;2023-05-21T09:06:05;102323.38;;;17.89;52.33
25658;BME280;13517;59.320;18.042;2023-05-21T09:08:34;102329.59;;;17.91;52.83
25658;BME280;13517;59.320;18.042;2023-05-21T09:11:00;102342.66;;;18.13;52.75
25658;BME280;13517;59.320;18.042;2023-05-21T09:13:27;102326.44;;;18.10;52.68
25658;BME280;13517;59.320;18.042;2023-05-21T09:15:54;102330.34;;;17.93;52.92
25658;BME280;13517;59.320;18.042;2023-05-21T09:18:20;102346.66;;;17.81;53.81
25658;BME280;13517;59.320;18.042;2023-05-21T09:20:45;102334.41;;;17.61;54.79
25658;BME280;13517;59.320;18.042;2023-05-21T09:23:11;102333.34;;;17.49;54.99
25658;BME280;13517;59.320;18.042;2023-05-21T09:25:44;102346.47;;;17.44;55.25
25658;BME280;13517;59.320;18.042;2023-05-21T09:28:14;102354.09;;;17.39;55.63
25658;BME280;13517;59.320;18.042;2023-05-21T09:30:47;102324.97;;;17.25;55.25
25658;BME280;13517;59.320;18.042;2023-05-21T09:33:33;102333.72;;;17.17;54.20
25658;BME280;13517;59.320;18.042;2023-05-21T09:35:59;102337.03;;;17.22;54.62
25658;BME280;13517;59.320;18.042;2023-05-21T09:38:24;102331.84;;;17.18;53.54
25658;BME280;13517;59.320;18.042;2023-05-21T09:40:50;102342.88;;;17.16;52.76
25658;BME280;13517;59.320;18.042;2023-05-21T09:43:20;102315.19;;;17.08;52.50
25658;BME280;13517;59.320;18.042;2023-05-21T09:45:52;102318.19;;;17.18;53.00
25658;BME280;13517;59.320;18.042;2023-05-21T09:48:41;102328.53;;;17.40;52.61
25658;BME280;13517;59.320;18.042;2023-05-21T09:51:07;102338.75;;;17.64;52.42
25658;BME280;13517;59.320;18.042;2023-05-21T09:53:33;102336.16;;;17.75;51.82
25658;BME280;13517;59.320;18.042;2023-05-21T09:55:58;102307.59;;;17.66;51.95
25658;BME280;13517;59.320;18.042;2023-05-21T09:58:24;102331.78;;;17.86;52.21
25658;BME280;13517;59.320;18.042;2023-05-21T10:00:51;102318.22;;;17.97;51.92
25658;BME280;13517;59.320;18.042;2023-05-21T10:03:22;102305.41;;;17.84;51.39
25658;BME280;13517;59.320;18.042;2023-05-21T10:05:49;102299.09;;;17.97;51.33
25658;BME280;13517;59.320;18.042;2023-05-21T10:08:17;102326.78;;;18.31;50.09
25658;BME280;13517;59.320;18.042;2023-05-21T10:10:43;102305.00;;;18.43;50.02
25658;BME280;13517;59.320;18.042;2023-05-21T10:13:11;102314.84;;;18.70;49.90
25658;BME280;13517;59.320;18.042;2023-05-21T10:15:43;102294.66;;;18.59;49.42
25658;BME280;13517;59.320;18.042;2023-05-21T10:18:10;102322.81;;;18.86;49.29
25658;BME280;13517;59.320;18.042;2023-05-21T10:20:37;102296.88;;;18.78;48.64
25658;BME280;13517;59.320;18.042;2023-05-21T10:23:03;102292.59;;;18.87;48.34
25658;BME280;13517;59.320;18.042;2023-05-21T10:25:30;102289.75;;;18.76;49.01
25658;BME280;13517;59.320;18.042;2023-05-21T10:27:56;102309.63;;;18.67;49.58
25658;BME280;13517;59.320;18.042;2023-05-21T10:30:22;102308.78;;;18.53;49.66
25658;BME280;13517;59.320;18.042;2023-05-21T10:32:48;102290.19;;;18.45;49.87
25658;BME280;13517;59.320;18.042;2023-05-21T10:35:17;102281.97;;;18.45;49.68
25658;BME280;13517;59.320;18.042;2023-05-21T10:37:43;102252.47;;;18.24;50.12
25658;BME280;13517;59.320;18.042;2023-05-21T10:40:10;102301.47;;;18.41;50.88
25658;BME280;13517;59.320;18.042;2023-05-21T10:43:01;102307.97;;;18.27;51.27
25658;BME280;13517;59.320;18.042;2023-05-21T10:45:54;102305.47;;;18.10;51.59
25658;BME280;13517;59.320;18.042;2023-05-21T10:48:57;102298.66;;;18.03;51.33
25658;BME280;13517;59.320;18.042;2023-05-21T10:51:38;102296.91;;;18.15;51.59
25658;BME280;13517;59.320;18.042;2023-05-21T10:59:45;102294.63;;;18.22;51.85
25658;BME280;13517;59.320;18.042;2023-05-21T11:02:13;102273.84;;;18.19;51.82
25658;BME280;13517;59.320;18.042;2023-05-21T11:04:40;102288.47;;;18.31;51.44
25658;BME280;13517;59.320;18.042;2023-05-21T11:07:07;102285.63;;;18.33;51.05
25658;BME280;13517;59.320;18.042;2023-05-21T11:09:33;102275.44;;;18.35;51.16
25658;BME280;13517;59.320;18.042;2023-05-21T11:11:59;102292.66;;;18.61;50.50
25658;BME280;13517;59.320;18.042;2023-05-21T11:14:26;102287.78;;;18.78;50.04
25658;BME280;13517;59.320;18.042;2023-05-21T11:16:53;102267.66;;;18.79;49.66
25658;BME280;13517;59.320;18.042;2023-05-21T11:19:18;102277.19;;;18.98;49.54
25658;BME280;13517;59.320;18.042;2023-05-21T11:21:49;102262.22;;;18.90;49.47
25658;BME280;13517;59.320;18.042;2023-05-21T11:24:19;102278.03;;;19.11;48.99
25658;BME280;13517;59.320;18.042;2023-05-21T11:29:13;102259.44;;;19.28;48.41
25658;BME280;13517;59.320;18.042;2023-05-21T11:31:47;102260.81;;;19.33;48.39
25658;BME280;13517;59.320;18.042;2023-05-21T11:34:21;102255.16;;;19.24;48.10
25658;BME280;13517;59.320;18.042;2023-05-21T11:39:55;102213.47;;;18.96;49.00
25658;BME280;13517;59.320;18.042;2023-05-21T11:44:55;102273.91;;;19.41;49.42
25658;BME280;13517;59.320;18.042;2023-05-21T11:47:22;102249.75;;;19.46;48.80
25658;BME280;13517;59.320;18.042;2023-05-21T11:49:48;102266.13;;;19.71;49.07
25658;BME280;13517;59.320;18.042;2023-05-21T11:52:13;102265.66;;;19.89;48.76
25658;BME280;13517;59.320;18.042;2023-05-21T11:54:44;102273.03;;;20.11;48.18
25658;BME280;13517;59.320;18.042;2023-05-21T11:57:16;102252.47;;;20.17;47.79
25658;BME280;13517;59.320;18.042;2023-05-21T11:59:46;102255.06;;;20.18;48.10
25658;BME280;13517;59.320;18.042;2023-05-21T12:02:17;102229.78;;;20.03;48.06
25658;BME280;13517;59.320;18.042;2023-05-21T12:04:44;102261.69;;;20.16;48.02
25658;BME280;13517;59.320;18.042;2023-05-21T12:07:11;102258.59;;;20.20;48.43
25658;BME280;13517;59.320;18.042;2023-05-21T12:09:44;102237.03;;;20.04;48.24
25658;BME280;13517;59.320;18.042;2023-05-21T12:12:11;102241.00;;;20.11;47.81
25658;BME280;13517;59.320;18.042;2023-05-21T12:14:38;102251.09;;;20.22;47.67
25658;BME280;13517;59.320;18.042;2023-05-21T12:17:04;102256.81;;;20.19;47.35
25658;BME280;13517;59.320;18.042;2023-05-21T12:19:34;102244.88;;;20.09;47.85
25658;BME280;13517;59.320;18.042;2023-05-21T12:22:04;102244.97;;;20.07;47.33
25658;BME280;13517;59.320;18.042;2023-05-21T12:24:30;102226.66;;;20.08;47.64
25658;BME280;13517;59.320;18.042;2023-05-21T12:27:00;102248.13;;;20.14;47.20
25658;BME280;13517;59.320;18.042;2023-05-21T12:29:27;102248.25;;;20.24;46.77
25658;BME280;13517;59.320;18.042;2023-05-21T12:31:58;102244.84;;;20.32;46.57
25658;BME280;13517;59.320;18.042;2023-05-21T12:34:45;102248.09;;;20.37;46.33
25658;BME280;13517;59.320;18.042;2023-05-21T12:37:20;102235.47;;;20.46;46.24
25658;BME280;13517;59.320;18.042;2023-05-21T12:39:48;102236.09;;;20.49;46.32
25658;BME280;13517;59.320;18.042;2023-05-21T12:42:14;102221.59;;;20.47;46.25
25658;BME280;13517;59.320;18.042;2023-05-21T12:44:44;102214.03;;;20.39;45.74
25658;BME280;13517;59.320;18.042;2023-05-21T12:47:11;102202.16;;;20.39;45.79
25658;BME280;13517;59.320;18.042;2023-05-21T12:49:39;102234.47;;;20.47;45.98
25658;BME280;13517;59.320;18.042;2023-05-21T12:52:09;102214.41;;;20.35;45.99
25658;BME280;13517;59.320;18.042;2023-05-21T12:54:39;102223.00;;;20.41;46.16